createdAt,value
2022-11-13T00:08:42.091Z,5.98
2022-11-13T00:19:05.925Z,5.97
2022-11-13T00:29:27.420Z,5.95
2022-11-13T00:39:48.863Z,5.94
2022-11-13T00:50:10.343Z,5.90
2022-11-13T01:00:32.529Z,5.91
2022-11-13T01:10:54.142Z,5.86
2022-11-13T01:21:22.049Z,5.80
2022-11-13T01:31:43.516Z,5.76
2022-11-13T01:42:05.076Z,5.76
2022-11-13T01:52:33.487Z,5.74
2022-11-13T02:02:54.964Z,5.70
2022-11-13T02:13:16.847Z,5.70
2022-11-13T02:24:13.737Z,5.70
2022-11-13T02:34:36.357Z,5.67
2022-11-13T02:44:57.804Z,5.61
2022-11-13T02:55:19.492Z,5.59
2022-11-13T03:05:40.951Z,5.57
2022-11-13T03:16:12.892Z,5.48
2022-11-13T03:26:34.245Z,5.37
2022-11-13T03:36:55.731Z,5.27
2022-11-13T03:47:18.140Z,5.27
2022-11-13T03:57:39.609Z,5.21
2022-11-13T04:08:01.052Z,5.15
2022-11-13T04:18:22.798Z,5.09
2022-11-13T04:28:44.265Z,5.07
2022-11-13T04:39:06.077Z,5.00
2022-11-13T04:49:27.579Z,4.92
2022-11-13T04:59:49.381Z,4.88
2022-11-13T05:10:10.948Z,4.86
2022-11-13T05:20:32.558Z,4.91
2022-11-13T05:30:54.011Z,4.88
2022-11-13T05:41:18.623Z,4.80
2022-11-13T05:51:41.005Z,4.78
2022-11-13T06:02:02.563Z,4.71
2022-11-13T06:12:24.247Z,4.66
2022-11-13T06:22:45.778Z,4.58
2022-11-13T06:33:07.261Z,4.48
2022-11-13T06:43:29.378Z,4.42
2022-11-13T06:53:53.277Z,4.38
2022-11-13T07:04:14.855Z,4.25
2022-11-13T07:14:36.323Z,4.33
2022-11-13T07:24:58.823Z,4.43
2022-11-13T07:35:20.344Z,4.52
2022-11-13T07:45:43.434Z,4.60
2022-11-13T07:56:05.479Z,4.64
2022-11-13T08:06:28.038Z,4.72
2022-11-13T08:16:49.500Z,4.78
2022-11-13T08:27:11.006Z,4.85
2022-11-13T08:37:33.291Z,4.98
2022-11-13T08:47:54.899Z,5.00
2022-11-13T08:58:16.473Z,5.11
2022-11-13T09:08:37.911Z,5.22
2022-11-13T09:18:59.434Z,5.40
2022-11-13T09:29:23.239Z,5.58
2022-11-13T09:39:44.776Z,5.75
2022-11-13T09:50:19.577Z,5.88
2022-11-13T10:00:41.316Z,6.07
2022-11-13T10:11:14.523Z,6.26
2022-11-13T10:22:31.605Z,6.46
2022-11-13T10:32:47.643Z,6.67
2022-11-13T10:43:18.511Z,6.88
2022-11-13T10:53:42.485Z,7.09
2022-11-13T11:04:05.979Z,7.26
2022-11-13T11:14:33.926Z,7.47
2022-11-13T11:25:06.057Z,7.63
2022-11-13T11:35:46.202Z,7.80
2022-11-13T11:46:15.343Z,7.90
2022-11-13T11:56:44.487Z,8.08
2022-11-13T12:07:22.509Z,8.26
2022-11-13T12:18:15.527Z,8.39
2022-11-13T12:28:50.421Z,8.52
2022-11-13T12:39:30.706Z,8.67
2022-11-13T12:50:00.493Z,8.71
2022-11-13T13:00:30.423Z,8.80
2022-11-13T13:11:04.415Z,8.99
2022-11-13T13:21:25.916Z,9.06
2022-11-13T13:32:20.429Z,9.15
2022-11-13T13:43:06.676Z,9.21
2022-11-13T13:53:32.225Z,9.26
2022-11-13T14:04:13.736Z,9.24
2022-11-13T14:14:35.188Z,9.24
2022-11-13T14:25:01.619Z,9.24
2022-11-13T14:35:25.628Z,9.23
2022-11-13T14:45:58.892Z,9.23
2022-11-13T14:56:43.921Z,9.12
2022-11-13T15:07:23.051Z,8.91
2022-11-13T15:17:46.849Z,8.73
2022-11-13T15:28:08.965Z,8.57
2022-11-13T15:38:30.553Z,8.38
2022-11-13T15:49:00.964Z,8.18
2022-11-13T15:59:22.524Z,8.00
2022-11-13T16:09:44.783Z,7.74
2022-11-13T16:20:08.999Z,7.47
2022-11-13T16:30:31.357Z,7.17
2022-11-13T16:40:52.837Z,6.91
2022-11-13T16:51:14.734Z,6.79
2022-11-13T17:01:36.272Z,6.64
2022-11-13T17:11:57.753Z,6.40
2022-11-13T17:22:19.203Z,6.31
2022-11-13T17:32:40.810Z,6.32
2022-11-13T17:43:02.283Z,6.38
2022-11-13T17:53:24.691Z,6.24
2022-11-13T18:03:47.168Z,6.15
2022-11-13T18:14:08.878Z,6.19
2022-11-13T18:24:30.381Z,6.28
2022-11-13T18:34:51.979Z,6.26
2022-11-13T18:45:16.317Z,6.35
2022-11-13T18:55:37.870Z,6.41
2022-11-13T19:05:59.355Z,6.50
2022-11-13T19:16:24.751Z,6.54
2022-11-13T19:26:46.423Z,6.61
2022-11-13T19:37:07.913Z,6.61
2022-11-13T19:47:29.948Z,6.68
2022-11-13T19:57:51.505Z,6.73
2022-11-13T20:08:13.822Z,6.73
2022-11-13T20:18:36.050Z,6.78
2022-11-13T20:28:57.592Z,6.81
2022-11-13T20:39:19.280Z,6.91
2022-11-13T20:49:40.959Z,6.93
2022-11-13T21:00:02.813Z,7.00
2022-11-13T21:10:24.294Z,7.05
2022-11-13T21:20:46.320Z,7.10
2022-11-13T21:31:10.143Z,7.14
2022-11-13T21:41:31.697Z,7.14
2022-11-13T21:51:53.168Z,7.16
2022-11-13T22:02:14.671Z,7.11
2022-11-13T22:12:36.231Z,7.12
2022-11-13T22:22:57.685Z,7.15
2022-11-13T22:33:19.197Z,7.16
2022-11-13T22:43:42.342Z,7.19
2022-11-13T22:54:09.136Z,7.27
2022-11-13T23:04:30.606Z,7.31
2022-11-13T23:14:52.101Z,7.39
2022-11-13T23:25:13.575Z,7.45
2022-11-13T23:35:35.118Z,7.46
2022-11-13T23:45:56.845Z,7.46
2022-11-13T23:56:18.327Z,7.47
